createdAt,value
2018-06-08T00:02:05.102Z,4.57
2018-06-08T00:04:34.887Z,4.23
2018-06-08T00:07:04.463Z,3.87
2018-06-08T00:09:34.187Z,4.20
2018-06-08T00:12:04.097Z,4.07
2018-06-08T00:14:33.777Z,4.10
2018-06-08T00:17:03.347Z,4.40
2018-06-08T00:19:33.229Z,3.83
2018-06-08T00:22:03.023Z,4.20
2018-06-08T00:24:32.850Z,4.30
2018-06-08T00:27:02.621Z,4.43
2018-06-08T00:29:32.522Z,4.20
2018-06-08T00:32:02.166Z,4.00
2018-06-08T00:34:31.746Z,3.63
2018-06-08T00:37:01.489Z,4.47
2018-06-08T00:39:31.244Z,4.70
2018-06-08T00:42:00.999Z,4.20
2018-06-08T00:44:30.819Z,4.37
2018-06-08T00:47:00.788Z,4.30
2018-06-08T00:49:30.471Z,4.47
2018-06-08T00:52:00.430Z,4.40
2018-06-08T00:54:30.281Z,4.40
2018-06-08T00:57:08.573Z,4.70
2018-06-08T00:59:38.194Z,4.33
2018-06-08T01:02:08.034Z,4.40
2018-06-08T01:04:37.916Z,4.40
2018-06-08T01:07:07.606Z,4.53
2018-06-08T01:09:37.429Z,4.60
2018-06-08T01:12:07.319Z,4.33
2018-06-08T01:14:36.854Z,4.00
2018-06-08T01:17:06.711Z,4.27
2018-06-08T01:19:36.996Z,4.40
2018-06-08T01:22:06.663Z,4.60
2018-06-08T01:24:36.363Z,4.83
2018-06-08T01:27:06.214Z,3.97
2018-06-08T01:29:36.061Z,4.40
2018-06-08T01:32:05.813Z,5.07
2018-06-08T01:34:35.790Z,4.40
2018-06-08T01:37:05.670Z,4.37
2018-06-08T01:39:35.347Z,4.20
2018-06-08T01:42:05.334Z,4.20
2018-06-08T01:44:35.336Z,4.93
2018-06-08T01:47:06.249Z,4.30
2018-06-08T01:49:36.629Z,4.40
2018-06-08T01:52:06.592Z,4.20
2018-06-08T01:54:36.758Z,4.30
2018-06-08T01:57:06.604Z,4.43
2018-06-08T01:59:36.856Z,4.10
2018-06-08T02:02:06.875Z,4.40
2018-06-08T02:04:36.657Z,4.50
2018-06-08T02:07:08.705Z,4.03
2018-06-08T02:09:38.491Z,4.60
2018-06-08T02:12:08.275Z,4.17
2018-06-08T02:14:38.139Z,4.10
2018-06-08T02:17:07.978Z,4.20
2018-06-08T02:19:37.728Z,4.10
2018-06-08T02:22:07.905Z,4.30
2018-06-08T02:24:37.483Z,4.50
2018-06-08T02:27:07.290Z,4.13
2018-06-08T02:29:36.992Z,4.37
2018-06-08T02:32:06.738Z,4.60
2018-06-08T02:34:36.524Z,4.60
2018-06-08T02:37:06.328Z,4.40
2018-06-08T02:39:36.355Z,4.90
2018-06-08T02:42:05.959Z,4.57
2018-06-08T02:44:35.690Z,4.70
2018-06-08T02:47:07.539Z,4.40
2018-06-08T02:49:37.341Z,4.60
2018-06-08T02:52:07.104Z,4.27
2018-06-08T02:54:37.684Z,4.40
2018-06-08T02:57:07.511Z,4.40
2018-06-08T02:59:37.340Z,4.70
2018-06-08T03:02:07.035Z,4.30
2018-06-08T03:04:36.793Z,4.53
2018-06-08T03:07:06.876Z,5.00
2018-06-08T03:09:37.576Z,5.73
2018-06-08T03:12:07.407Z,4.57
2018-06-08T03:14:37.278Z,4.67
2018-06-08T03:17:09.226Z,4.73
2018-06-08T03:19:39.061Z,4.43
2018-06-08T03:22:08.992Z,4.07
2018-06-08T03:24:38.689Z,4.33
2018-06-08T03:27:08.227Z,4.07
2018-06-08T03:29:37.962Z,4.43
2018-06-08T03:32:07.846Z,4.42
2018-06-08T03:34:37.735Z,4.17
2018-06-08T03:37:07.666Z,4.73
2018-06-08T03:39:37.498Z,4.13
2018-06-08T03:42:07.255Z,3.83
2018-06-08T03:44:36.969Z,4.63
2018-06-08T03:47:06.691Z,3.97
2018-06-08T03:49:36.555Z,3.73
2018-06-08T03:52:06.480Z,4.13
2018-06-08T03:54:36.362Z,4.30
2018-06-08T03:57:06.354Z,4.20
2018-06-08T03:59:36.165Z,4.10
2018-06-08T04:02:05.924Z,4.07
2018-06-08T04:04:35.536Z,4.17
2018-06-08T04:07:05.438Z,4.17
2018-06-08T04:09:35.277Z,4.23
2018-06-08T04:12:04.838Z,4.10
2018-06-08T04:14:34.610Z,4.23
2018-06-08T04:17:04.322Z,4.60
2018-06-08T04:19:34.248Z,4.23
2018-06-08T04:22:11.343Z,4.47
2018-06-08T04:24:40.983Z,4.67
2018-06-08T04:27:10.804Z,4.57
2018-06-08T04:29:40.813Z,4.23
2018-06-08T04:32:10.463Z,4.13
2018-06-08T04:34:40.343Z,4.40
2018-06-08T04:37:10.318Z,4.30
2018-06-08T04:39:40.080Z,4.30
2018-06-08T04:42:10.019Z,4.70
2018-06-08T04:44:39.747Z,4.23
2018-06-08T04:47:09.512Z,4.27
2018-06-08T04:49:39.039Z,4.47
2018-06-08T04:52:09.134Z,4.07
2018-06-08T04:54:38.726Z,4.30
2018-06-08T04:57:08.595Z,4.10
2018-06-08T04:59:38.296Z,4.17
2018-06-08T05:02:07.985Z,4.67
2018-06-08T05:04:37.877Z,3.90
2018-06-08T05:07:07.732Z,4.20
2018-06-08T05:09:37.471Z,4.87
2018-06-08T05:12:07.308Z,4.20
2018-06-08T05:14:37.350Z,4.17
2018-06-08T05:17:07.100Z,4.57
2018-06-08T05:19:36.842Z,4.57
2018-06-08T05:22:06.694Z,4.67
2018-06-08T05:24:36.372Z,4.73
2018-06-08T05:27:06.334Z,4.67
2018-06-08T05:29:36.092Z,5.03
2018-06-08T05:32:06.018Z,6.13
2018-06-08T05:34:35.787Z,6.00
2018-06-08T05:37:05.298Z,6.17
2018-06-08T05:39:35.078Z,5.93
2018-06-08T05:42:04.950Z,6.07
2018-06-08T05:44:34.651Z,5.07
2018-06-08T05:47:04.423Z,5.50
2018-06-08T05:49:34.050Z,5.37
2018-06-08T05:52:03.821Z,5.10
2018-06-08T05:54:33.579Z,5.20
2018-06-08T05:57:03.314Z,5.30
2018-06-08T05:59:32.973Z,5.20
2018-06-08T06:02:02.687Z,5.30
2018-06-08T06:04:32.319Z,5.40
2018-06-08T06:07:02.048Z,6.53
2018-06-08T06:09:31.856Z,5.43
2018-06-08T06:12:01.561Z,5.70
2018-06-08T06:14:31.592Z,5.30
2018-06-08T06:17:04.380Z,5.43
2018-06-08T06:19:34.334Z,6.20
2018-06-08T06:22:04.113Z,5.63
2018-06-08T06:24:34.092Z,5.77
2018-06-08T06:27:04.213Z,5.83
2018-06-08T06:29:34.002Z,5.30
2018-06-08T06:32:03.744Z,5.20
2018-06-08T06:34:33.848Z,5.03
2018-06-08T06:37:03.551Z,5.37
2018-06-08T06:39:33.882Z,6.03
2018-06-08T06:42:03.945Z,5.90
2018-06-08T06:44:33.881Z,5.33
2018-06-08T06:47:03.906Z,5.80
2018-06-08T06:49:33.642Z,6.43
2018-06-08T06:52:03.454Z,7.23
2018-06-08T06:54:33.440Z,7.87
2018-06-08T06:57:03.274Z,6.37
2018-06-08T06:59:32.975Z,6.13
2018-06-08T07:02:02.834Z,6.33
2018-06-08T07:04:32.625Z,6.90
2018-06-08T07:07:02.380Z,7.57
2018-06-08T07:09:33.420Z,6.57
2018-06-08T07:12:03.411Z,6.40
2018-06-08T07:14:33.161Z,5.80
2018-06-08T07:17:02.952Z,41.77
2018-06-08T07:19:32.524Z,22.90
2018-06-08T07:22:03.396Z,19.63
2018-06-08T07:24:33.203Z,30.67
2018-06-08T07:27:03.376Z,15.10
2018-06-08T07:29:33.353Z,16.93
2018-06-08T07:32:03.403Z,35.63
2018-06-08T07:34:33.424Z,7.63
2018-06-08T07:37:03.555Z,5.63
2018-06-08T07:39:33.784Z,6.67
2018-06-08T07:42:03.783Z,5.80
2018-06-08T07:44:33.874Z,6.30
2018-06-08T07:47:03.744Z,6.17
2018-06-08T07:49:34.130Z,7.23
2018-06-08T07:52:04.265Z,7.57
2018-06-08T07:54:34.579Z,7.73
2018-06-08T07:57:04.571Z,6.30
2018-06-08T07:59:34.871Z,7.50
2018-06-08T08:02:04.993Z,8.97
2018-06-08T08:04:35.034Z,6.50
2018-06-08T08:07:05.142Z,7.37
2018-06-08T08:09:35.306Z,5.43
2018-06-08T08:12:05.183Z,3.43
2018-06-08T08:14:35.733Z,4.30
2018-06-08T08:17:05.946Z,3.60
2018-06-08T08:19:36.486Z,3.33
2018-06-08T08:22:06.435Z,3.70
2018-06-08T08:24:36.609Z,3.23
2018-06-08T08:27:07.005Z,3.20
2018-06-08T08:29:37.174Z,3.13
2018-06-08T08:32:07.393Z,3.63
2018-06-08T08:34:37.681Z,3.13
2018-06-08T08:37:07.928Z,3.10
2018-06-08T08:39:48.009Z,3.10
2018-06-08T08:42:18.151Z,3.40
2018-06-08T08:44:49.545Z,3.23
2018-06-08T08:47:19.659Z,2.90
2018-06-08T08:49:49.771Z,3.27
2018-06-08T08:52:20.076Z,3.23
2018-06-08T08:54:50.222Z,3.33
2018-06-08T08:57:20.141Z,3.30
2018-06-08T08:59:50.460Z,3.40
2018-06-08T09:02:20.433Z,3.30
2018-06-08T09:04:50.802Z,3.57
2018-06-08T09:07:20.775Z,3.23
2018-06-08T09:09:50.764Z,3.27
2018-06-08T09:12:21.066Z,3.27
2018-06-08T09:14:51.096Z,3.20
2018-06-08T09:17:21.189Z,3.30
2018-06-08T09:19:51.196Z,3.77
2018-06-08T09:22:21.227Z,3.80
2018-06-08T09:24:51.543Z,4.67
2018-06-08T09:27:21.814Z,3.53
2018-06-08T09:29:53.008Z,3.67
2018-06-08T09:32:23.161Z,3.37
2018-06-08T09:34:53.583Z,3.90
2018-06-08T09:37:24.802Z,3.60
2018-06-08T09:39:55.120Z,3.33
2018-06-08T09:42:25.296Z,3.40
2018-06-08T09:44:56.303Z,3.50
2018-06-08T09:47:26.586Z,3.47
2018-06-08T09:49:57.787Z,3.60
2018-06-08T09:52:27.745Z,4.13
2018-06-08T09:54:57.920Z,3.77
2018-06-08T09:57:28.349Z,3.50
2018-06-08T09:59:58.611Z,3.80
2018-06-08T10:02:28.837Z,3.53
2018-06-08T10:04:59.136Z,3.60
2018-06-08T10:07:29.424Z,4.57
2018-06-08T10:09:59.927Z,3.83
2018-06-08T10:12:29.792Z,4.10
2018-06-08T10:14:59.595Z,3.20
2018-06-08T10:17:29.994Z,2.97
2018-06-08T10:19:59.848Z,4.03
2018-06-08T10:22:30.012Z,3.60
2018-06-08T10:25:00.035Z,3.30
2018-06-08T10:27:30.225Z,3.50
2018-06-08T10:30:00.551Z,3.80
2018-06-08T10:32:30.738Z,3.93
2018-06-08T10:35:00.936Z,3.60
2018-06-08T10:37:31.090Z,4.47
2018-06-08T10:40:01.249Z,4.50
2018-06-08T10:42:31.492Z,4.20
2018-06-08T10:45:01.665Z,3.80
2018-06-08T10:47:31.767Z,3.60
2018-06-08T10:50:01.919Z,3.50
2018-06-08T10:52:31.890Z,3.93
2018-06-08T10:55:02.008Z,3.80
2018-06-08T10:57:32.521Z,3.90
2018-06-08T11:00:02.988Z,3.87
2018-06-08T11:02:32.900Z,4.33
2018-06-08T11:05:03.293Z,4.10
2018-06-08T11:07:33.632Z,4.23
2018-06-08T11:10:03.887Z,4.33
2018-06-08T11:12:33.993Z,4.10
2018-06-08T11:15:04.289Z,3.80
2018-06-08T11:17:35.929Z,4.43
2018-06-08T11:20:06.630Z,4.33
2018-06-08T11:22:37.098Z,4.20
2018-06-08T11:25:07.106Z,3.58
2018-06-08T11:27:37.071Z,3.83
2018-06-08T11:30:07.354Z,3.75
2018-06-08T11:32:37.270Z,4.78
2018-06-08T11:35:07.820Z,3.98
2018-06-08T11:37:37.845Z,4.03
2018-06-08T11:40:07.729Z,3.77
2018-06-08T11:42:37.838Z,3.40
2018-06-08T11:45:08.242Z,3.75
2018-06-08T11:47:39.340Z,3.50
2018-06-08T11:50:09.101Z,4.25
2018-06-08T11:52:39.458Z,3.40
2018-06-08T11:55:09.502Z,3.95
2018-06-08T11:57:39.703Z,3.62
2018-06-08T12:00:09.911Z,3.33
2018-06-08T12:02:40.076Z,3.42
2018-06-08T12:05:10.476Z,3.50
2018-06-08T12:07:40.584Z,3.47
2018-06-08T12:10:10.476Z,3.40
2018-06-08T12:12:40.579Z,3.85
2018-06-08T12:15:10.753Z,3.02
2018-06-08T12:17:40.960Z,3.25
2018-06-08T12:20:11.201Z,3.27
2018-06-08T12:22:41.339Z,3.15
2018-06-08T12:25:11.747Z,3.35
2018-06-08T12:27:41.905Z,3.47
2018-06-08T12:30:12.144Z,3.00
2018-06-08T12:32:42.366Z,3.20
2018-06-08T12:35:12.586Z,2.90
2018-06-08T12:37:42.657Z,2.90
2018-06-08T12:40:12.777Z,3.37
2018-06-08T12:42:42.937Z,2.92
2018-06-08T12:45:13.159Z,3.00
2018-06-08T12:47:43.091Z,3.12
2018-06-08T12:50:13.231Z,2.97
2018-06-08T12:52:43.513Z,3.37
2018-06-08T12:55:14.628Z,3.17
2018-06-08T12:57:44.865Z,3.52
2018-06-08T13:00:15.114Z,3.20
2018-06-08T13:02:45.317Z,3.10
2018-06-08T13:05:15.705Z,3.47
2018-06-08T13:07:45.841Z,3.45
2018-06-08T13:10:16.210Z,3.40
2018-06-08T13:12:46.374Z,3.10
2018-06-08T13:15:16.397Z,3.58
2018-06-08T13:17:46.493Z,3.05
2018-06-08T13:20:16.664Z,3.20
2018-06-08T13:22:46.560Z,3.10
2018-06-08T13:25:16.782Z,3.35
2018-06-08T13:27:47.056Z,3.35
2018-06-08T13:30:17.597Z,3.40
2018-06-08T13:32:47.738Z,3.10
2018-06-08T13:35:18.047Z,3.47
2018-06-08T13:37:48.188Z,3.55
2018-06-08T13:40:18.261Z,3.37
2018-06-08T13:42:48.507Z,3.98
2018-06-08T13:45:18.589Z,3.62
2018-06-08T13:47:48.799Z,3.40
2018-06-08T13:50:19.139Z,3.67
2018-06-08T13:52:49.300Z,3.65
2018-06-08T13:55:19.672Z,3.90
2018-06-08T13:57:49.644Z,3.20
2018-06-08T14:00:19.955Z,3.30
2018-06-08T14:02:49.847Z,3.40
2018-06-08T14:05:20.125Z,3.40
2018-06-08T14:07:50.279Z,3.55
2018-06-08T14:10:20.359Z,3.60
2018-06-08T14:12:51.602Z,3.52
2018-06-08T14:15:21.958Z,3.37
2018-06-08T14:17:52.099Z,3.37
2018-06-08T14:20:22.069Z,3.30
2018-06-08T14:22:52.202Z,3.37
2018-06-08T14:25:22.243Z,3.50
2018-06-08T14:27:53.362Z,3.77
2018-06-08T14:30:23.527Z,3.60
2018-06-08T14:32:53.775Z,3.35
2018-06-08T14:35:23.937Z,3.05
2018-06-08T14:37:54.337Z,3.20
2018-06-08T14:40:24.690Z,3.57
2018-06-08T14:42:55.012Z,3.30
2018-06-08T14:45:25.340Z,3.47
2018-06-08T14:47:55.278Z,3.52
2018-06-08T14:50:25.433Z,3.15
2018-06-08T14:52:55.979Z,3.60
2018-06-08T14:55:26.355Z,3.60
2018-06-08T14:57:56.446Z,3.60
2018-06-08T15:00:26.715Z,3.60
2018-06-08T15:02:56.936Z,3.42
2018-06-08T15:05:27.078Z,3.52
2018-06-08T15:07:57.238Z,3.33
2018-06-08T15:10:27.130Z,3.52
2018-06-08T15:12:57.270Z,3.52
2018-06-08T15:15:27.513Z,3.50
2018-06-08T15:17:57.291Z,3.27
2018-06-08T15:20:27.671Z,3.30
2018-06-08T15:22:57.995Z,3.60
2018-06-08T15:25:28.904Z,3.60
2018-06-08T15:27:58.723Z,3.12
2018-06-08T15:30:28.727Z,3.50
2018-06-08T15:32:58.728Z,3.12
2018-06-08T15:35:29.198Z,3.30
2018-06-08T15:37:59.388Z,3.00
2018-06-08T15:40:29.620Z,3.00
2018-06-08T15:42:59.878Z,3.00
2018-06-08T15:45:30.079Z,3.17
2018-06-08T15:48:00.141Z,2.85
2018-06-08T15:50:30.327Z,3.37
2018-06-08T15:53:00.572Z,3.30
2018-06-08T15:55:30.776Z,2.95
2018-06-08T15:58:01.306Z,3.42
2018-06-08T16:00:31.587Z,3.37
2018-06-08T16:03:01.886Z,3.27
2018-06-08T16:05:32.149Z,3.25
2018-06-08T16:08:02.266Z,3.20
2018-06-08T16:10:32.544Z,3.33
2018-06-08T16:13:02.383Z,3.30
2018-06-08T16:15:32.631Z,3.50
2018-06-08T16:18:02.719Z,3.90
2018-06-08T16:20:33.031Z,4.10
2018-06-08T16:23:03.068Z,3.60
2018-06-08T16:25:33.233Z,3.17
2018-06-08T16:28:03.416Z,3.50
2018-06-08T16:30:33.607Z,3.00
2018-06-08T16:33:03.637Z,2.92
2018-06-08T16:35:33.817Z,3.00
2018-06-08T16:38:03.911Z,2.90
2018-06-08T16:40:34.057Z,2.95
2018-06-08T16:43:04.211Z,3.10
2018-06-08T16:45:34.229Z,3.25
2018-06-08T16:48:04.502Z,3.33
2018-06-08T16:50:35.571Z,3.58
2018-06-08T16:53:06.876Z,3.10
2018-06-08T16:55:36.799Z,3.05
2018-06-08T16:58:06.694Z,3.37
2018-06-08T17:00:37.007Z,4.17
2018-06-08T17:03:08.274Z,3.87
2018-06-08T17:05:38.250Z,4.08
2018-06-08T17:08:08.684Z,4.15
2018-06-08T17:10:38.810Z,4.40
2018-06-08T17:13:09.053Z,3.92
2018-06-08T17:15:39.091Z,4.25
2018-06-08T17:18:10.294Z,4.20
2018-06-08T17:20:40.361Z,4.30
2018-06-08T17:23:10.467Z,4.33
2018-06-08T17:25:40.525Z,4.92
2018-06-08T17:28:11.136Z,4.87
2018-06-08T17:30:41.344Z,5.08
2018-06-08T17:33:11.675Z,4.72
2018-06-08T17:35:41.991Z,5.17
2018-06-08T17:38:13.802Z,4.80
2018-06-08T17:40:43.822Z,5.42
2018-06-08T17:43:16.253Z,5.40
2018-06-08T17:45:46.570Z,5.12
2018-06-08T17:48:16.614Z,5.47
2018-06-08T17:50:46.676Z,6.20
2018-06-08T17:53:16.600Z,6.00
2018-06-08T17:55:46.627Z,5.30
2018-06-08T17:58:16.854Z,5.70
2018-06-08T18:00:46.956Z,5.45
2018-06-08T18:03:17.218Z,6.20
2018-06-08T18:05:47.326Z,9.00
2018-06-08T18:08:17.451Z,6.77
2018-06-08T18:10:47.751Z,6.60
2018-06-08T18:13:17.629Z,6.97
2018-06-08T18:15:47.793Z,7.40
2018-06-08T18:18:18.295Z,6.83
2018-06-08T18:20:48.412Z,6.87
2018-06-08T18:23:18.566Z,7.40
2018-06-08T18:25:48.685Z,7.20
2018-06-08T18:28:18.757Z,7.60
2018-06-08T18:30:49.036Z,7.03
2018-06-08T18:33:19.420Z,7.30
2018-06-08T18:35:50.651Z,8.20
2018-06-08T18:38:20.659Z,8.10
2018-06-08T18:40:51.052Z,8.27
2018-06-08T18:43:21.261Z,8.13
2018-06-08T18:45:51.273Z,8.37
2018-06-08T18:48:21.541Z,9.17
2018-06-08T18:50:51.664Z,8.47
2018-06-08T18:53:21.825Z,8.47
2018-06-08T18:55:51.803Z,9.13
2018-06-08T18:58:22.082Z,9.13
2018-06-08T19:00:52.099Z,8.50
2018-06-08T19:03:22.178Z,11.43
2018-06-08T19:05:52.476Z,10.33
2018-06-08T19:08:22.779Z,35.53
2018-06-08T19:10:52.998Z,10.87
2018-06-08T19:13:23.111Z,11.27
2018-06-08T19:15:53.522Z,11.13
2018-06-08T19:18:23.687Z,41.07
2018-06-08T19:20:53.974Z,9.40
2018-06-08T19:23:23.964Z,9.33
2018-06-08T19:25:54.084Z,9.97
2018-06-08T19:28:24.141Z,8.73
2018-06-08T19:30:54.360Z,10.10
2018-06-08T19:33:27.839Z,9.27
2018-06-08T19:35:58.221Z,8.90
2018-06-08T19:38:28.603Z,9.37
2018-06-08T19:40:58.823Z,9.60
2018-06-08T19:43:29.250Z,9.23
2018-06-08T19:45:59.483Z,9.43
2018-06-08T19:48:29.745Z,10.43
2018-06-08T19:50:59.905Z,10.33
2018-06-08T19:53:30.364Z,10.30
2018-06-08T19:56:00.857Z,10.23
2018-06-08T19:58:31.014Z,10.47
2018-06-08T20:01:01.179Z,9.67
2018-06-08T20:03:32.080Z,11.90
2018-06-08T20:06:02.301Z,12.03
2018-06-08T20:08:32.522Z,12.43
2018-06-08T20:11:02.629Z,12.47
2018-06-08T20:13:32.902Z,13.03
2018-06-08T20:16:03.195Z,12.57
2018-06-08T20:18:33.524Z,15.60
2018-06-08T20:21:06.304Z,13.20
2018-06-08T20:23:36.513Z,12.93
2018-06-08T20:26:06.494Z,12.10
2018-06-08T20:28:36.697Z,11.70
2018-06-08T20:31:06.980Z,11.08
2018-06-08T20:33:37.178Z,11.33
2018-06-08T20:36:07.240Z,9.83
2018-06-08T20:38:37.415Z,9.37
2018-06-08T20:41:07.351Z,9.60
2018-06-08T20:43:37.362Z,11.27
2018-06-08T20:46:08.721Z,10.07
2018-06-08T20:48:39.143Z,8.60
2018-06-08T20:51:09.081Z,6.60
2018-06-08T20:53:39.425Z,6.00
2018-06-08T20:56:09.668Z,5.67
2018-06-08T20:58:39.807Z,4.77
2018-06-08T21:01:10.069Z,5.17
2018-06-08T21:03:40.067Z,4.77
2018-06-08T21:06:10.118Z,5.27
2018-06-08T21:08:40.172Z,4.80
2018-06-08T21:11:10.226Z,5.30
2018-06-08T21:13:40.514Z,5.73
2018-06-08T21:16:10.765Z,6.75
2018-06-08T21:18:42.596Z,5.77
2018-06-08T21:21:12.652Z,6.60
2018-06-08T21:23:42.754Z,7.07
2018-06-08T21:26:12.865Z,6.80
2018-06-08T21:28:43.117Z,7.27
2018-06-08T21:31:13.393Z,7.35
2018-06-08T21:33:43.611Z,7.30
2018-06-08T21:36:13.818Z,7.00
2018-06-08T21:38:44.371Z,7.50
2018-06-08T21:41:14.492Z,7.20
2018-06-08T21:43:44.434Z,7.53
2018-06-08T21:46:14.724Z,8.10
2018-06-08T21:48:44.793Z,7.63
2018-06-08T21:51:14.974Z,7.53
2018-06-08T21:53:45.015Z,8.07
2018-06-08T21:56:14.875Z,8.00
2018-06-08T21:58:45.012Z,7.87
2018-06-08T22:01:14.916Z,8.53
2018-06-08T22:03:45.249Z,8.73
2018-06-08T22:06:15.499Z,8.47
2018-06-08T22:08:45.603Z,8.33
2018-06-08T22:11:15.734Z,8.47
2018-06-08T22:13:45.854Z,10.00
2018-06-08T22:16:15.966Z,9.93
2018-06-08T22:18:46.061Z,10.43
2018-06-08T22:21:16.314Z,10.57
2018-06-08T22:23:46.517Z,8.80
2018-06-08T22:26:16.727Z,8.23
2018-06-08T22:28:47.149Z,7.00
2018-06-08T22:31:17.128Z,5.63
2018-06-08T22:33:47.268Z,6.07
2018-06-08T22:36:17.174Z,5.20
2018-06-08T22:38:47.544Z,5.23
2018-06-08T22:41:17.553Z,5.10
2018-06-08T22:43:47.663Z,4.90
2018-06-08T22:46:19.001Z,4.87
2018-06-08T22:48:49.225Z,5.10
2018-06-08T22:51:19.431Z,4.97
2018-06-08T22:53:49.267Z,4.40
2018-06-08T22:56:19.397Z,4.43
2018-06-08T22:58:49.328Z,4.60
2018-06-08T23:01:19.300Z,4.73
2018-06-08T23:03:50.561Z,4.97
2018-06-08T23:06:21.037Z,4.80
2018-06-08T23:08:51.054Z,4.50
2018-06-08T23:11:20.956Z,4.67
2018-06-08T23:13:51.141Z,4.50
2018-06-08T23:16:21.147Z,4.83
2018-06-08T23:18:51.435Z,4.67
2018-06-08T23:21:21.378Z,4.50
2018-06-08T23:23:52.557Z,4.53
2018-06-08T23:26:22.903Z,4.80
2018-06-08T23:28:53.127Z,5.00
2018-06-08T23:31:23.424Z,4.33
2018-06-08T23:33:53.669Z,4.37
2018-06-08T23:36:23.711Z,4.57
2018-06-08T23:38:53.802Z,4.63
2018-06-08T23:41:24.152Z,5.05
2018-06-08T23:43:54.165Z,4.90
2018-06-08T23:46:24.102Z,4.27
2018-06-08T23:48:54.225Z,5.00
2018-06-08T23:51:24.067Z,4.63
2018-06-08T23:53:55.136Z,5.40
2018-06-08T23:56:25.433Z,4.93
2018-06-08T23:58:55.520Z,4.53
